sensor_id;sensor_type;location;lat;lon;timestamp;pressure;altitude;pressure_sealevel;temperature;humidity
46724;BME280;32463;48.298;11.620;2023-04-06T00:00:13;96560.56;;;-2.31;100.00
46724;BME280;32463;48.298;11.620;2023-04-06T00:02:41;96553.06;;;-2.34;100.00
46724;BME280;32463;48.298;11.620;2023-04-06T00:05:07;96548.22;;;-2.39;100.00
46724;BME280;32463;48.298;11.620;2023-04-06T00:07:34;96550.97;;;-2.43;100.00
46724;BME280;32463;48.298;11.620;2023-04-06T00:10:01;96556.66;;;-2.38;100.00
46724;BME280;32463;48.298;11.620;2023-04-06T00:12:27;96554.66;;;-2.31;100.00
46724;BME280;32463;48.298;11.620;2023-04-06T00:14:54;96549.72;;;-2.34;100.00
46724;BME280;32463;48.298;11.620;2023-04-06T00:17:20;96554.13;;;-2.38;100.00
46724;BME280;32463;48.298;11.620;2023-04-06T00:19:47;96555.75;;;-2.37;100.00
46724;BME280;32463;48.298;11.620;2023-04-06T00:22:13;96557.41;;;-2.36;100.00
46724;BME280;32463;48.298;11.620;2023-04-06T00:24:40;96561.38;;;-2.30;100.00
46724;BME280;32463;48.298;11.620;2023-04-06T00:27:06;96554.88;;;-2.36;100.00
46724;BME280;32463;48.298;11.620;2023-04-06T00:29:33;96554.25;;;-2.41;100.00
46724;BME280;32463;48.298;11.620;2023-04-06T00:32:00;96550.25;;;-2.45;100.00
46724;BME280;32463;48.298;11.620;2023-04-06T00:34:26;96560.09;;;-2.56;100.00
46724;BME280;32463;48.298;11.620;2023-04-06T00:36:52;96560.66;;;-2.68;100.00
46724;BME280;32463;48.298;11.620;2023-04-06T00:39:19;96548.38;;;-2.76;100.00
46724;BME280;32463;48.298;11.620;2023-04-06T00:41:49;96559.47;;;-2.79;100.00
46724;BME280;32463;48.298;11.620;2023-04-06T00:44:17;96557.22;;;-2.67;100.00
46724;BME280;32463;48.298;11.620;2023-04-06T00:46:44;96551.13;;;-2.81;100.00
46724;BME280;32463;48.298;11.620;2023-04-06T00:49:11;96554.69;;;-2.85;100.00
46724;BME280;32463;48.298;11.620;2023-04-06T00:51:38;96556.03;;;-2.78;100.00
46724;BME280;32463;48.298;11.620;2023-04-06T00:54:04;96550.66;;;-2.72;100.00
46724;BME280;32463;48.298;11.620;2023-04-06T00:56:31;96555.31;;;-2.62;100.00
46724;BME280;32463;48.298;11.620;2023-04-06T00:58:58;96555.44;;;-2.65;100.00
46724;BME280;32463;48.298;11.620;2023-04-06T01:01:25;96555.31;;;-2.62;100.00
46724;BME280;32463;48.298;11.620;2023-04-06T01:03:52;96550.97;;;-2.78;100.00
46724;BME280;32463;48.298;11.620;2023-04-06T01:06:19;96558.72;;;-2.81;100.00
46724;BME280;32463;48.298;11.620;2023-04-06T01:08:45;96555.72;;;-2.89;100.00
46724;BME280;32463;48.298;11.620;2023-04-06T01:11:12;96558.41;;;-2.92;100.00
46724;BME280;32463;48.298;11.620;2023-04-06T01:13:39;96563.59;;;-2.95;100.00
46724;BME280;32463;48.298;11.620;2023-04-06T01:16:05;96552.09;;;-3.02;100.00
46724;BME280;32463;48.298;11.620;2023-04-06T01:18:32;96557.22;;;-3.03;100.00
46724;BME280;32463;48.298;11.620;2023-04-06T01:20:58;96555.69;;;-3.06;100.00
46724;BME280;32463;48.298;11.620;2023-04-06T01:23:26;96553.16;;;-3.06;100.00
46724;BME280;32463;48.298;11.620;2023-04-06T01:25:53;96556.72;;;-3.10;100.00
46724;BME280;32463;48.298;11.620;2023-04-06T01:28:19;96555.97;;;-3.12;100.00
46724;BME280;32463;48.298;11.620;2023-04-06T01:30:46;96552.53;;;-3.11;100.00
46724;BME280;32463;48.298;11.620;2023-04-06T01:33:12;96544.19;;;-3.13;100.00
46724;BME280;32463;48.298;11.620;2023-04-06T01:35:39;96546.91;;;-3.18;100.00
46724;BME280;32463;48.298;11.620;2023-04-06T01:38:05;96556.50;;;-3.24;100.00
46724;BME280;32463;48.298;11.620;2023-04-06T01:40:33;96546.91;;;-3.18;100.00
46724;BME280;32463;48.298;11.620;2023-04-06T01:43:00;96536.44;;;-3.10;100.00
46724;BME280;32463;48.298;11.620;2023-04-06T01:45:27;96532.38;;;-3.14;100.00
46724;BME280;32463;48.298;11.620;2023-04-06T01:47:54;96534.94;;;-3.14;100.00
46724;BME280;32463;48.298;11.620;2023-04-06T01:50:21;96540.19;;;-3.19;100.00
46724;BME280;32463;48.298;11.620;2023-04-06T01:52:47;96535.94;;;-3.18;100.00
46724;BME280;32463;48.298;11.620;2023-04-06T01:55:14;96543.34;;;-3.14;100.00
46724;BME280;32463;48.298;11.620;2023-04-06T01:57:41;96544.31;;;-3.16;100.00
46724;BME280;32463;48.298;11.620;2023-04-06T02:00:08;96542.94;;;-3.23;100.00
46724;BME280;32463;48.298;11.620;2023-04-06T02:02:35;96548.97;;;-3.26;100.00
46724;BME280;32463;48.298;11.620;2023-04-06T02:05:02;96540.88;;;-3.34;100.00
46724;BME280;32463;48.298;11.620;2023-04-06T02:07:29;96533.78;;;-3.45;100.00
46724;BME280;32463;48.298;11.620;2023-04-06T02:09:55;96530.63;;;-3.50;100.00
46724;BME280;32463;48.298;11.620;2023-04-06T02:12:22;96539.25;;;-3.54;100.00
46724;BME280;32463;48.298;11.620;2023-04-06T02:14:49;96535.28;;;-3.59;100.00
46724;BME280;32463;48.298;11.620;2023-04-06T02:17:15;96540.41;;;-3.61;100.00
46724;BME280;32463;48.298;11.620;2023-04-06T02:19:42;96529.38;;;-3.60;100.00
46724;BME280;32463;48.298;11.620;2023-04-06T02:22:09;96531.28;;;-3.65;100.00
46724;BME280;32463;48.298;11.620;2023-04-06T02:24:36;96532.94;;;-3.64;100.00
46724;BME280;32463;48.298;11.620;2023-04-06T02:27:02;96526.38;;;-3.68;100.00
46724;BME280;32463;48.298;11.620;2023-04-06T02:29:29;96540.06;;;-3.72;100.00
46724;BME280;32463;48.298;11.620;2023-04-06T02:31:55;96526.50;;;-3.71;100.00
46724;BME280;32463;48.298;11.620;2023-04-06T02:34:22;96529.25;;;-3.76;100.00
46724;BME280;32463;48.298;11.620;2023-04-06T02:36:48;96529.31;;;-3.77;100.00
46724;BME280;32463;48.298;11.620;2023-04-06T02:39:15;96536.09;;;-3.78;100.00
46724;BME280;32463;48.298;11.620;2023-04-06T02:41:41;96526.91;;;-3.80;100.00
46724;BME280;32463;48.298;11.620;2023-04-06T02:44:08;96524.50;;;-3.83;100.00
46724;BME280;32463;48.298;11.620;2023-04-06T02:46:35;96520.06;;;-3.78;100.00
46724;BME280;32463;48.298;11.620;2023-04-06T02:49:02;96527.59;;;-3.77;100.00
46724;BME280;32463;48.298;11.620;2023-04-06T02:51:28;96523.63;;;-3.82;100.00
46724;BME280;32463;48.298;11.620;2023-04-06T02:53:55;96523.75;;;-3.85;100.00
46724;BME280;32463;48.298;11.620;2023-04-06T02:56:21;96527.47;;;-3.74;100.00
46724;BME280;32463;48.298;11.620;2023-04-06T02:58:48;96526.22;;;-3.65;100.00
46724;BME280;32463;48.298;11.620;2023-04-06T03:01:14;96531.28;;;-3.65;100.00
46724;BME280;32463;48.298;11.620;2023-04-06T03:03:41;96525.19;;;-3.61;100.00
46724;BME280;32463;48.298;11.620;2023-04-06T03:06:08;96534.03;;;-3.51;100.00
46724;BME280;32463;48.298;11.620;2023-04-06T03:08:34;96525.69;;;-3.53;100.00
46724;BME280;32463;48.298;11.620;2023-04-06T03:11:01;96533.78;;;-3.45;100.00
46724;BME280;32463;48.298;11.620;2023-04-06T03:13:27;96533.22;;;-3.51;100.00
46724;BME280;32463;48.298;11.620;2023-04-06T03:15:54;96518.97;;;-3.54;100.00
46724;BME280;32463;48.298;11.620;2023-04-06T03:18:22;96528.97;;;-3.51;100.00
46724;BME280;32463;48.298;11.620;2023-04-06T03:20:49;96529.66;;;-3.47;100.00
46724;BME280;32463;48.298;11.620;2023-04-06T03:23:16;96526.50;;;-3.52;100.00
46724;BME280;32463;48.298;11.620;2023-04-06T03:25:42;96527.53;;;-3.56;100.00
46724;BME280;32463;48.298;11.620;2023-04-06T03:28:09;96526.03;;;-3.60;100.00
46724;BME280;32463;48.298;11.620;2023-04-06T03:30:36;96525.28;;;-3.62;100.00
46724;BME280;32463;48.298;11.620;2023-04-06T03:33:03;96537.72;;;-3.58;100.00
46724;BME280;32463;48.298;11.620;2023-04-06T03:35:30;96534.44;;;-3.60;100.00
46724;BME280;32463;48.298;11.620;2023-04-06T03:37:56;96526.09;;;-3.62;100.00
46724;BME280;32463;48.298;11.620;2023-04-06T03:40:23;96533.44;;;-3.56;100.00
46724;BME280;32463;48.298;11.620;2023-04-06T03:42:50;96530.88;;;-3.56;100.00
46724;BME280;32463;48.298;11.620;2023-04-06T03:45:16;96535.06;;;-3.55;100.00
46724;BME280;32463;48.298;11.620;2023-04-06T03:47:43;96529.25;;;-3.57;100.00
46724;BME280;32463;48.298;11.620;2023-04-06T03:50:10;96533.69;;;-3.62;100.00
46724;BME280;32463;48.298;11.620;2023-04-06T03:52:37;96541.16;;;-3.59;100.00
46724;BME280;32463;48.298;11.620;2023-04-06T03:55:03;96542.94;;;-3.61;100.00
46724;BME280;32463;48.298;11.620;2023-04-06T03:57:30;96540.97;;;-3.73;100.00
46724;BME280;32463;48.298;11.620;2023-04-06T03:59:57;96542.03;;;-3.79;100.00
46724;BME280;32463;48.298;11.620;2023-04-06T04:02:23;96532.31;;;-3.88;100.00
46724;BME280;32463;48.298;11.620;2023-04-06T04:04:50;96542.63;;;-3.92;100.00
46724;BME280;32463;48.298;11.620;2023-04-06T04:07:16;96539.34;;;-3.94;100.00
46724;BME280;32463;48.298;11.620;2023-04-06T04:09:43;96553.75;;;-3.96;100.00
46724;BME280;32463;48.298;11.620;2023-04-06T04:12:10;96544.69;;;-4.00;100.00
46724;BME280;32463;48.298;11.620;2023-04-06T04:14:37;96547.97;;;-3.98;100.00
46724;BME280;32463;48.298;11.620;2023-04-06T04:17:03;96549.59;;;-3.97;100.00
46724;BME280;32463;48.298;11.620;2023-04-06T04:19:31;96550.28;;;-3.94;100.00
46724;BME280;32463;48.298;11.620;2023-04-06T04:21:58;96558.50;;;-3.89;100.00
46724;BME280;32463;48.298;11.620;2023-04-06T04:24:25;96554.00;;;-3.82;100.00
46724;BME280;32463;48.298;11.620;2023-04-06T04:26:54;96564.50;;;-3.71;100.00
46724;BME280;32463;48.298;11.620;2023-04-06T04:29:21;96558.69;;;-3.73;100.00
46724;BME280;32463;48.298;11.620;2023-04-06T04:31:48;96564.56;;;-3.72;100.00
46724;BME280;32463;48.298;11.620;2023-04-06T04:34:15;96568.56;;;-3.67;100.00
46724;BME280;32463;48.298;11.620;2023-04-06T04:36:41;96568.28;;;-3.61;100.00
46724;BME280;32463;48.298;11.620;2023-04-06T04:39:09;96573.50;;;-3.45;100.00
46724;BME280;32463;48.298;11.620;2023-04-06T04:41:36;96570.78;;;-3.41;100.00
46724;BME280;32463;48.298;11.620;2023-04-06T04:44:02;96565.41;;;-3.34;100.00
46724;BME280;32463;48.298;11.620;2023-04-06T04:46:29;96572.66;;;-3.27;100.00
46724;BME280;32463;48.298;11.620;2023-04-06T04:48:55;96580.91;;;-3.22;100.00
46724;BME280;32463;48.298;11.620;2023-04-06T04:51:22;96569.03;;;-3.21;100.00
46724;BME280;32463;48.298;11.620;2023-04-06T04:53:49;96558.16;;;-3.23;100.00
46724;BME280;32463;48.298;11.620;2023-04-06T04:56:16;96573.97;;;-3.18;100.00
46724;BME280;32463;48.298;11.620;2023-04-06T04:58:42;96564.59;;;-3.16;100.00
46724;BME280;32463;48.298;11.620;2023-04-06T05:01:09;96576.13;;;-3.09;100.00
46724;BME280;32463;48.298;11.620;2023-04-06T05:03:36;96566.09;;;-3.12;100.00
46724;BME280;32463;48.298;11.620;2023-04-06T05:06:04;96566.09;;;-3.12;100.00
46724;BME280;32463;48.298;11.620;2023-04-06T05:08:31;96564.31;;;-3.10;100.00
46724;BME280;32463;48.298;11.620;2023-04-06T05:10:58;96565.97;;;-3.09;100.00
46724;BME280;32463;48.298;11.620;2023-04-06T05:13:25;96572.06;;;-3.13;100.00
46724;BME280;32463;48.298;11.620;2023-04-06T05:15:51;96566.84;;;-3.10;100.00
46724;BME280;32463;48.298;11.620;2023-04-06T05:18:18;96572.25;;;-2.99;100.00
46724;BME280;32463;48.298;11.620;2023-04-06T05:20:44;96565.09;;;-2.91;100.00
46724;BME280;32463;48.298;11.620;2023-04-06T05:23:11;96569.91;;;-2.85;100.00
46724;BME280;32463;48.298;11.620;2023-04-06T05:25:38;96564.84;;;-2.85;100.00
46724;BME280;32463;48.298;11.620;2023-04-06T05:28:04;96566.34;;;-2.81;100.00
46724;BME280;32463;48.298;11.620;2023-04-06T05:30:31;96566.28;;;-2.62;100.00
46724;BME280;32463;48.298;11.620;2023-04-06T05:32:58;96565.78;;;-2.51;100.00
46724;BME280;32463;48.298;11.620;2023-04-06T05:35:25;96571.47;;;-2.46;100.00
46724;BME280;32463;48.298;11.620;2023-04-06T05:37:51;96567.72;;;-2.39;100.00
46724;BME280;32463;48.298;11.620;2023-04-06T05:40:18;96566.38;;;-2.29;100.00
46724;BME280;32463;48.298;11.620;2023-04-06T05:42:44;96571.91;;;-2.21;100.00
46724;BME280;32463;48.298;11.620;2023-04-06T05:45:12;96571.28;;;-2.09;100.00
46724;BME280;32463;48.298;11.620;2023-04-06T05:47:43;96572.78;;;-1.87;100.00
46724;BME280;32463;48.298;11.620;2023-04-06T05:50:11;96569.44;;;-1.72;100.00
46724;BME280;32463;48.298;11.620;2023-04-06T05:52:38;96572.28;;;-1.61;100.00
46724;BME280;32463;48.298;11.620;2023-04-06T05:55:08;96566.38;;;-1.46;100.00
46724;BME280;32463;48.298;11.620;2023-04-06T05:57:35;96574.06;;;-1.30;100.00
46724;BME280;32463;48.298;11.620;2023-04-06T06:00:02;96576.00;;;-1.19;100.00
46724;BME280;32463;48.298;11.620;2023-04-06T06:02:32;96579.91;;;-0.96;100.00
46724;BME280;32463;48.298;11.620;2023-04-06T06:04:59;96575.88;;;-1.00;100.00
46724;BME280;32463;48.298;11.620;2023-04-06T06:07:25;96578.56;;;-0.88;100.00
46724;BME280;32463;48.298;11.620;2023-04-06T06:09:52;96577.41;;;-0.82;100.00
46724;BME280;32463;48.298;11.620;2023-04-06T06:12:19;96581.44;;;-0.62;100.00
46724;BME280;32463;48.298;11.620;2023-04-06T06:14:45;96594.63;;;-0.56;100.00
46724;BME280;32463;48.298;11.620;2023-04-06T06:17:12;96580.81;;;-0.36;100.00
46724;BME280;32463;48.298;11.620;2023-04-06T06:19:40;96585.75;;;-0.19;100.00
46724;BME280;32463;48.298;11.620;2023-04-06T06:22:07;96577.44;;;-0.07;100.00
46724;BME280;32463;48.298;11.620;2023-04-06T06:24:33;96579.47;;;0.17;100.00
46724;BME280;32463;48.298;11.620;2023-04-06T06:27:00;96567.84;;;0.27;100.00
46724;BME280;32463;48.298;11.620;2023-04-06T06:29:26;96566.53;;;0.34;100.00
46724;BME280;32463;48.298;11.620;2023-04-06T06:31:53;96575.31;;;0.58;100.00
46724;BME280;32463;48.298;11.620;2023-04-06T06:34:19;96572.72;;;0.73;100.00
46724;BME280;32463;48.298;11.620;2023-04-06T06:36:46;96574.00;;;0.80;100.00
46724;BME280;32463;48.298;11.620;2023-04-06T06:39:12;96571.50;;;0.92;100.00
46724;BME280;32463;48.298;11.620;2023-04-06T06:41:39;96566.66;;;1.16;100.00
46724;BME280;32463;48.298;11.620;2023-04-06T06:44:05;96568.97;;;1.33;100.00
46724;BME280;32463;48.298;11.620;2023-04-06T06:46:32;96571.94;;;1.67;100.00
46724;BME280;32463;48.298;11.620;2023-04-06T06:48:59;96572.38;;;1.86;100.00
46724;BME280;32463;48.298;11.620;2023-04-06T06:51:26;96581.00;;;1.98;100.00
46724;BME280;32463;48.298;11.620;2023-04-06T06:53:52;96582.44;;;2.15;100.00
46724;BME280;32463;48.298;11.620;2023-04-06T06:56:19;96575.31;;;2.32;99.42
46724;BME280;32463;48.298;11.620;2023-04-06T06:58:45;96575.09;;;2.23;100.00
46724;BME280;32463;48.298;11.620;2023-04-06T07:01:12;96580.41;;;2.07;97.96
46724;BME280;32463;48.298;11.620;2023-04-06T07:03:39;96587.97;;;2.09;99.15
46724;BME280;32463;48.298;11.620;2023-04-06T07:06:06;96586.44;;;2.19;99.77
46724;BME280;32463;48.298;11.620;2023-04-06T07:08:32;96587.78;;;2.37;99.63
46724;BME280;32463;48.298;11.620;2023-04-06T07:10:59;96590.84;;;2.55;98.77
46724;BME280;32463;48.298;11.620;2023-04-06T07:13:25;96587.97;;;2.59;99.76
46724;BME280;32463;48.298;11.620;2023-04-06T07:15:52;96586.31;;;2.84;99.86
46724;BME280;32463;48.298;11.620;2023-04-06T07:18:19;96586.13;;;2.74;97.40
46724;BME280;32463;48.298;11.620;2023-04-06T07:20:46;96592.03;;;3.00;96.09
46724;BME280;32463;48.298;11.620;2023-04-06T07:23:13;96587.13;;;3.33;97.04
46724;BME280;32463;48.298;11.620;2023-04-06T07:25:39;96574.66;;;3.40;98.48
46724;BME280;32463;48.298;11.620;2023-04-06T07:28:06;96587.22;;;3.32;90.51
46724;BME280;32463;48.298;11.620;2023-04-06T07:30:32;96582.25;;;3.42;87.98
46724;BME280;32463;48.298;11.620;2023-04-06T07:32:58;96587.50;;;3.64;84.14
46724;BME280;32463;48.298;11.620;2023-04-06T07:35:26;96586.69;;;3.98;82.15
46724;BME280;32463;48.298;11.620;2023-04-06T07:37:56;96589.28;;;4.10;83.18
46724;BME280;32463;48.298;11.620;2023-04-06T07:40:23;96587.88;;;4.05;84.03
46724;BME280;32463;48.298;11.620;2023-04-06T07:42:51;96586.78;;;4.21;81.74
46724;BME280;32463;48.298;11.620;2023-04-06T07:45:17;96578.41;;;4.52;82.89
46724;BME280;32463;48.298;11.620;2023-04-06T07:47:45;96583.81;;;4.83;82.45
46724;BME280;32463;48.298;11.620;2023-04-06T07:50:11;96589.38;;;4.99;76.21
46724;BME280;32463;48.298;11.620;2023-04-06T07:52:38;96581.28;;;5.26;79.22
46724;BME280;32463;48.298;11.620;2023-04-06T07:55:05;96576.97;;;5.26;73.12
46724;BME280;32463;48.298;11.620;2023-04-06T07:57:32;96579.09;;;4.99;73.06
46724;BME280;32463;48.298;11.620;2023-04-06T07:59:58;96576.88;;;4.94;73.95
46724;BME280;32463;48.298;11.620;2023-04-06T08:02:25;96569.06;;;5.18;71.90
46724;BME280;32463;48.298;11.620;2023-04-06T08:04:52;96566.56;;;5.39;70.93
46724;BME280;32463;48.298;11.620;2023-04-06T08:07:18;96565.00;;;5.48;69.04
46724;BME280;32463;48.298;11.620;2023-04-06T08:09:45;96567.84;;;5.77;66.41
46724;BME280;32463;48.298;11.620;2023-04-06T08:12:12;96572.16;;;6.29;65.14
46724;BME280;32463;48.298;11.620;2023-04-06T08:14:39;96567.28;;;6.56;62.55
46724;BME280;32463;48.298;11.620;2023-04-06T08:17:05;96573.81;;;6.91;59.61
46724;BME280;32463;48.298;11.620;2023-04-06T08:19:32;96568.22;;;7.26;57.51
46724;BME280;32463;48.298;11.620;2023-04-06T08:21:58;96569.59;;;7.39;56.27
46724;BME280;32463;48.298;11.620;2023-04-06T08:24:25;96563.81;;;7.07;57.89
46724;BME280;32463;48.298;11.620;2023-04-06T08:26:52;96573.13;;;7.38;55.79
46724;BME280;32463;48.298;11.620;2023-04-06T08:29:19;96575.06;;;7.75;56.88
46724;BME280;32463;48.298;11.620;2023-04-06T08:31:45;96577.53;;;8.15;54.80
46724;BME280;32463;48.298;11.620;2023-04-06T08:34:12;96567.38;;;8.60;50.36
46724;BME280;32463;48.298;11.620;2023-04-06T08:36:38;96565.84;;;8.11;51.40
46724;BME280;32463;48.298;11.620;2023-04-06T08:39:05;96569.34;;;8.39;50.42
46724;BME280;32463;48.298;11.620;2023-04-06T08:41:32;96564.94;;;8.59;51.20
46724;BME280;32463;48.298;11.620;2023-04-06T08:44:00;96569.91;;;8.42;49.23
46724;BME280;32463;48.298;11.620;2023-04-06T08:46:28;96570.72;;;8.33;49.70
46724;BME280;32463;48.298;11.620;2023-04-06T08:49:00;96573.56;;;8.40;47.51
46724;BME280;32463;48.298;11.620;2023-04-06T08:51:28;96578.25;;;8.64;47.06
46724;BME280;32463;48.298;11.620;2023-04-06T08:53:57;96569.09;;;8.42;45.98
46724;BME280;32463;48.298;11.620;2023-04-06T08:56:25;96569.81;;;8.71;44.87
46724;BME280;32463;48.298;11.620;2023-04-06T08:58:52;96574.16;;;8.81;44.82
46724;BME280;32463;48.298;11.620;2023-04-06T09:01:25;96568.09;;;8.90;44.75
46724;BME280;32463;48.298;11.620;2023-04-06T09:03:56;96570.81;;;8.88;42.85
46724;BME280;32463;48.298;11.620;2023-04-06T09:06:24;96562.72;;;8.73;42.34
46724;BME280;32463;48.298;11.620;2023-04-06T09:08:53;96562.09;;;8.99;41.70
46724;BME280;32463;48.298;11.620;2023-04-06T09:11:20;96552.63;;;9.17;42.44
46724;BME280;32463;48.298;11.620;2023-04-06T09:13:49;96561.31;;;9.43;41.73
46724;BME280;32463;48.298;11.620;2023-04-06T09:16:17;96553.50;;;9.71;42.08
46724;BME280;32463;48.298;11.620;2023-04-06T09:18:44;96552.84;;;10.12;43.16
46724;BME280;32463;48.298;11.620;2023-04-06T09:21:11;96550.63;;;10.18;40.14
46724;BME280;32463;48.298;11.620;2023-04-06T09:23:38;96550.63;;;10.18;40.54
46724;BME280;32463;48.298;11.620;2023-04-06T09:28:58;96552.59;;;11.01;38.73
46724;BME280;32463;48.298;11.620;2023-04-06T09:31:28;96548.03;;;11.37;39.19
46724;BME280;32463;48.298;11.620;2023-04-06T09:33:56;96555.22;;;10.67;38.47
46724;BME280;32463;48.298;11.620;2023-04-06T09:36:34;96549.53;;;10.98;38.05
46724;BME280;32463;48.298;11.620;2023-04-06T09:39:04;96546.63;;;11.51;38.53
46724;BME280;32463;48.298;11.620;2023-04-06T09:41:33;96546.66;;;11.59;38.38
46724;BME280;32463;48.298;11.620;2023-04-06T09:46:35;96544.34;;;11.48;39.02
46724;BME280;32463;48.298;11.620;2023-04-06T09:49:03;96539.00;;;11.50;39.84
46724;BME280;32463;48.298;11.620;2023-04-06T09:51:31;96539.63;;;11.01;39.91
46724;BME280;32463;48.298;11.620;2023-04-06T09:54:02;96538.50;;;11.62;38.65
46724;BME280;32463;48.298;11.620;2023-04-06T09:56:47;96535.59;;;10.99;37.95
46724;BME280;32463;48.298;11.620;2023-04-06T10:07:34;96522.03;;;11.79;36.12
46724;BME280;32463;48.298;11.620;2023-04-06T10:10:02;96519.75;;;12.09;38.01
46724;BME280;32463;48.298;11.620;2023-04-06T10:12:29;96524.16;;;11.92;36.73
46724;BME280;32463;48.298;11.620;2023-04-06T10:14:56;96519.28;;;12.22;36.94
46724;BME280;32463;48.298;11.620;2023-04-06T10:17:23;96513.63;;;12.73;34.94
46724;BME280;32463;48.298;11.620;2023-04-06T10:19:56;96513.03;;;13.41;35.44
46724;BME280;32463;48.298;11.620;2023-04-06T10:22:32;96512.97;;;12.71;34.73
46724;BME280;32463;48.298;11.620;2023-04-06T10:25:02;96511.44;;;12.46;35.99
46724;BME280;32463;48.298;11.620;2023-04-06T10:27:29;96504.34;;;13.49;34.13
46724;BME280;32463;48.298;11.620;2023-04-06T10:30:06;96509.88;;;14.14;33.98
46724;BME280;32463;48.298;11.620;2023-04-06T10:32:36;96505.00;;;13.20;33.26
46724;BME280;32463;48.298;11.620;2023-04-06T10:35:10;96505.38;;;14.08;33.06
46724;BME280;32463;48.298;11.620;2023-04-06T10:37:53;96494.81;;;14.25;32.81
46724;BME280;32463;48.298;11.620;2023-04-06T10:40:24;96499.53;;;15.03;32.75
46724;BME280;32463;48.298;11.620;2023-04-06T10:42:53;96500.38;;;15.39;30.72
46724;BME280;32463;48.298;11.620;2023-04-06T10:45:24;96494.34;;;15.39;32.23
46724;BME280;32463;48.298;11.620;2023-04-06T10:47:54;96490.34;;;16.28;30.05
46724;BME280;32463;48.298;11.620;2023-04-06T10:50:22;96488.00;;;13.63;31.78
46724;BME280;32463;48.298;11.620;2023-04-06T10:53:08;96493.94;;;13.18;33.58
46724;BME280;32463;48.298;11.620;2023-04-06T10:55:38;96482.69;;;13.94;31.85
46724;BME280;32463;48.298;11.620;2023-04-06T10:58:07;96475.84;;;15.76;33.02
46724;BME280;32463;48.298;11.620;2023-04-06T11:00:35;96480.88;;;16.90;29.22
46724;BME280;32463;48.298;11.620;2023-04-06T11:03:01;96476.38;;;16.42;29.15
46724;BME280;32463;48.298;11.620;2023-04-06T11:05:28;96464.31;;;17.24;28.71
46724;BME280;32463;48.298;11.620;2023-04-06T11:07:55;96467.78;;;17.37;27.76
46724;BME280;32463;48.298;11.620;2023-04-06T11:10:22;96458.81;;;17.73;27.58
46724;BME280;32463;48.298;11.620;2023-04-06T11:12:55;96457.09;;;17.45;27.35
46724;BME280;32463;48.298;11.620;2023-04-06T11:15:22;96452.03;;;16.76;27.91
46724;BME280;32463;48.298;11.620;2023-04-06T11:17:49;96457.88;;;16.44;28.39
46724;BME280;32463;48.298;11.620;2023-04-06T11:20:16;96455.63;;;15.85;28.58
46724;BME280;32463;48.298;11.620;2023-04-06T11:22:51;96450.63;;;15.11;31.96
46724;BME280;32463;48.298;11.620;2023-04-06T11:25:18;96446.22;;;16.53;30.68
46724;BME280;32463;48.298;11.620;2023-04-06T11:27:46;96455.00;;;16.39;29.99
46724;BME280;32463;48.298;11.620;2023-04-06T11:30:13;96445.81;;;16.15;30.00
46724;BME280;32463;48.298;11.620;2023-04-06T11:32:44;96446.25;;;14.24;31.87
46724;BME280;32463;48.298;11.620;2023-04-06T11:35:23;96440.81;;;13.58;33.13
46724;BME280;32463;48.298;11.620;2023-04-06T11:37:50;96442.97;;;15.10;32.61
46724;BME280;32463;48.298;11.620;2023-04-06T11:40:21;96436.31;;;15.65;31.22
46724;BME280;32463;48.298;11.620;2023-04-06T11:42:53;96435.31;;;16.43;30.51
46724;BME280;32463;48.298;11.620;2023-04-06T11:45:19;96433.97;;;16.26;29.67
46724;BME280;32463;48.298;11.620;2023-04-06T11:47:55;96431.56;;;18.13;28.04
46724;BME280;32463;48.298;11.620;2023-04-06T11:50:23;96427.06;;;19.11;26.87
46724;BME280;32463;48.298;11.620;2023-04-06T11:52:58;96421.81;;;19.49;25.03
46724;BME280;32463;48.298;11.620;2023-04-06T11:55:26;96427.91;;;16.81;26.27
46724;BME280;32463;48.298;11.620;2023-04-06T11:57:53;96415.09;;;17.19;26.92
46724;BME280;32463;48.298;11.620;2023-04-06T12:00:21;96418.72;;;18.76;25.72
46724;BME280;32463;48.298;11.620;2023-04-06T12:02:48;96408.97;;;20.59;24.48
46724;BME280;32463;48.298;11.620;2023-04-06T12:05:15;96407.91;;;21.45;24.49
46724;BME280;32463;48.298;11.620;2023-04-06T12:07:41;96413.69;;;22.42;23.10
46724;BME280;32463;48.298;11.620;2023-04-06T12:10:08;96415.59;;;21.88;21.48
46724;BME280;32463;48.298;11.620;2023-04-06T12:12:35;96406.09;;;19.36;23.48
46724;BME280;32463;48.298;11.620;2023-04-06T12:15:01;96410.19;;;17.77;25.44
46724;BME280;32463;48.298;11.620;2023-04-06T12:17:28;96409.69;;;19.10;25.05
46724;BME280;32463;48.298;11.620;2023-04-06T12:19:55;96408.28;;;18.57;25.96
46724;BME280;32463;48.298;11.620;2023-04-06T12:22:21;96406.72;;;18.16;26.91
46724;BME280;32463;48.298;11.620;2023-04-06T12:24:47;96402.56;;;18.79;26.78
46724;BME280;32463;48.298;11.620;2023-04-06T12:27:14;96394.03;;;18.91;25.60
46724;BME280;32463;48.298;11.620;2023-04-06T12:29:42;96406.25;;;17.27;27.34
46724;BME280;32463;48.298;11.620;2023-04-06T12:32:09;96407.31;;;16.71;27.59
46724;BME280;32463;48.298;11.620;2023-04-06T12:34:35;96402.69;;;16.39;28.89
46724;BME280;32463;48.298;11.620;2023-04-06T12:37:02;96398.22;;;15.34;29.03
46724;BME280;32463;48.298;11.620;2023-04-06T12:39:28;96386.41;;;15.17;30.94
46724;BME280;32463;48.298;11.620;2023-04-06T12:41:55;96391.91;;;15.43;30.30
46724;BME280;32463;48.298;11.620;2023-04-06T12:44:22;96387.66;;;15.21;29.53
46724;BME280;32463;48.298;11.620;2023-04-06T12:46:49;96381.75;;;15.76;30.11
46724;BME280;32463;48.298;11.620;2023-04-06T12:49:15;96379.13;;;16.39;29.26
46724;BME280;32463;48.298;11.620;2023-04-06T12:51:43;96385.38;;;16.86;28.64
46724;BME280;32463;48.298;11.620;2023-04-06T12:54:10;96381.72;;;18.91;26.16
46724;BME280;32463;48.298;11.620;2023-04-06T12:56:37;96373.78;;;20.54;24.83
46724;BME280;32463;48.298;11.620;2023-04-06T12:59:03;96375.81;;;21.18;22.81
46724;BME280;32463;48.298;11.620;2023-04-06T13:01:30;96370.53;;;21.18;23.50